.
WxDataArchive / Data Records for 2006-01-09
2006-01-08 January 2006 2006-01-10

Data Records for Monday, 09 January 2006

Time	Temp	Chill	HIndex	Humid	Dewpt	 Wind 	HiWind	WindDir	Rain 	Barom 
-----	----	-----	------	-----	-----	------	------	-------	-----	----- 
00:00	45.5	42.9	45.5	69	35.9	5	15	248	0.00	29.571 
00:05	45.4	43.6	45.4	69	35.8	4	11	248	0.00	29.571 
00:10	45.4	43.6	45.4	69	35.8	4	10	248	0.00	29.571 
00:15	45.5	43.7	45.5	69	35.9	4	7	248	0.00	29.568 
00:20	45.8	44.0	45.8	69	36.2	4	7	270	0.00	29.568 
00:25	46.2	43.8	46.2	68	36.2	5	10	248	0.00	29.568 
00:30	46.4	44.0	46.4	67	36.0	5	10	248	0.00	29.568 
00:35	46.8	43.9	46.8	66	36.0	6	13	248	0.00	29.568 
00:40	47.1	44.2	47.1	65	35.9	6	15	248	0.00	29.568 
00:45	47.4	45.2	47.4	64	35.8	5	13	270	0.00	29.570 
00:50	47.4	45.2	47.4	64	35.8	5	12	270	0.00	29.570 
00:55	47.6	44.8	47.6	64	36.0	6	12	270	0.00	29.570 
01:00	47.4	44.6	47.4	64	35.8	6	13	248	0.00	29.586 
01:05	47.4	45.2	47.4	64	35.8	5	14	270	0.00	29.586 
01:10	47.3	44.5	47.3	64	35.7	6	14	270	0.00	29.586 
01:15	47.3	43.9	47.3	64	35.7	7	13	270	0.00	29.597 
01:20	47.1	44.8	47.1	64	35.6	5	12	270	0.00	29.597 
01:25	47.0	43.6	47.0	65	35.9	7	17	270	0.00	29.597 
01:30	46.8	43.9	46.8	65	35.7	6	14	270	0.00	29.609 
01:35	46.5	44.1	46.5	66	35.8	5	14	270	0.00	29.609 
01:40	46.2	43.1	46.2	66	35.5	6	14	270	0.00	29.609 
01:45	46.1	43.0	46.1	67	35.8	6	12	270	0.00	29.616 
01:50	45.7	43.9	45.7	68	35.8	4	9	270	0.00	29.616 
01:55	45.4	42.8	45.4	69	35.8	5	13	270	0.00	29.616 
02:00	45.4	42.2	45.4	69	35.8	6	12	270	0.00	29.630 
02:05	45.2	42.6	45.2	69	35.6	5	12	270	0.00	29.630 
02:10	44.9	42.2	44.9	70	35.7	5	13	270	0.00	29.630 
02:15	44.6	42.6	44.6	70	35.4	4	10	270	0.00	29.643 
02:20	44.5	41.1	44.5	71	35.7	6	14	248	0.00	29.643 
02:25	44.2	40.8	44.2	72	35.8	6	16	270	0.00	29.643 
02:30	44.1	40.6	44.1	72	35.7	6	11	270	0.00	29.659 
02:35	43.9	40.4	43.9	73	35.8	6	23	270	0.00	29.659 
02:40	43.6	40.7	43.6	73	35.5	5	13	270	0.00	29.659 
02:45	43.5	41.4	43.5	74	35.8	4	11	270	0.00	29.681 
02:50	43.5	40.6	43.5	74	35.8	5	17	270	0.00	29.681 
02:55	43.3	41.1	43.3	75	35.9	4	7	270	0.00	29.681 
03:00	43.2	41.0	43.2	75	35.8	4	10	270	0.00	29.708 
03:05	43.1	40.9	43.1	75	35.7	4	10	270	0.00	29.708 
03:10	42.8	42.8	42.8	76	35.8	3	5	270	0.00	29.708 
03:15	42.8	39.8	42.8	76	35.8	5	12	270	0.00	29.715 
03:20	42.6	42.6	42.6	77	35.9	3	6	270	0.00	29.715 
03:25	42.5	42.5	42.5	77	35.8	3	6	270	0.00	29.715 
03:30	42.3	42.3	42.3	77	35.6	3	6	270	0.00	29.736 
03:35	42.2	42.2	42.2	77	35.5	3	7	270	0.00	29.736 
03:40	42.2	42.2	42.2	76	35.2	3	5	270	0.00	29.736 
03:45	42.2	42.2	42.2	76	35.2	3	9	270	0.00	29.753 
03:50	42.1	39.7	42.1	75	34.8	4	10	270	0.00	29.753 
03:55	41.9	39.5	41.9	75	34.6	4	9	270	0.00	29.753 
04:00	41.6	39.2	41.6	75	34.3	4	10	270	0.00	29.770 
04:05	41.5	41.5	41.5	75	34.2	3	6	270	0.00	29.770 
04:10	41.2	41.2	41.2	76	34.2	2	4	270	0.00	29.770 
04:15	41.1	41.1	41.1	76	34.1	2	5	248	0.00	29.786 
04:20	40.8	40.8	40.8	76	33.8	3	7	270	0.00	29.786 
04:25	40.6	40.6	40.6	76	33.6	3	9	270	0.00	29.786 
04:30	40.5	40.5	40.5	76	33.5	3	6	270	0.00	29.794 
04:35	40.3	40.3	40.3	76	33.3	3	7	270	0.00	29.794 
04:40	40.2	40.2	40.2	77	33.6	2	5	270	0.00	29.794 
04:45	40.1	40.1	40.1	77	33.5	2	6	270	0.00	29.816 
04:50	39.9	39.9	39.9	77	33.3	3	7	270	0.00	29.816 
04:55	39.8	39.8	39.8	77	33.2	2	5	270	0.00	29.816 
05:00	39.6	39.6	39.6	77	33.0	3	5	270	0.00	29.828 
05:05	39.6	39.6	39.6	77	33.0	2	7	270	0.00	29.828 
05:10	39.5	39.5	39.5	78	33.2	2	5	270	0.00	29.828 
05:15	39.3	39.3	39.3	78	33.0	2	5	270	0.00	29.843 
05:20	39.2	39.2	39.2	78	32.9	2	4	270	0.00	29.843 
05:25	39.1	39.1	39.1	78	32.8	2	6	248	0.00	29.843 
05:30	38.9	38.9	38.9	79	33.0	2	6	270	0.00	29.855 
05:35	38.8	38.8	38.8	79	32.9	2	6	270	0.00	29.855 
05:40	38.8	38.8	38.8	79	32.9	3	7	270	0.00	29.855 
05:45	38.6	38.6	38.6	79	32.7	3	7	270	0.00	29.872 
05:50	38.6	38.6	38.6	79	32.7	3	7	270	0.00	29.872 
05:55	38.5	38.5	38.5	79	32.6	3	6	270	0.00	29.872 
06:00	38.5	38.5	38.5	80	32.9	3	7	270	0.00	29.886 
06:05	38.3	38.3	38.3	80	32.7	2	6	270	0.00	29.886 
06:10	38.3	38.3	38.3	80	32.7	2	5	315	0.00	29.886 
06:15	38.2	38.2	38.2	80	32.6	2	4	292	0.00	29.893 
06:20	38.2	38.2	38.2	81	32.9	3	6	270	0.00	29.893 
06:25	38.0	38.0	38.0	81	32.7	3	9	248	0.00	29.893 
06:30	38.0	38.0	38.0	81	32.7	3	7	270	0.00	29.911 
06:35	38.0	38.0	38.0	81	32.7	2	7	338	0.00	29.911 
06:40	37.9	37.9	37.9	81	32.6	3	6	270	0.00	29.911 
06:45	37.8	37.8	37.8	81	32.5	2	4	270	0.00	29.929 
06:50	37.8	37.8	37.8	81	32.5	2	6	270	0.00	29.929 
06:55	37.8	37.8	37.8	81	32.5	2	6	315	0.00	29.929 
07:00	37.6	37.6	37.6	81	32.3	2	5	270	0.00	29.947 
07:05	37.6	37.6	37.6	81	32.3	1	5	270	0.00	29.947 
07:10	37.5	37.5	37.5	81	32.2	1	2	338	0.00	29.947 
07:15	37.5	37.5	37.5	81	32.2	2	7	292	0.00	29.958 
07:20	37.5	37.5	37.5	81	32.2	2	5	270	0.00	29.958 
07:25	37.3	37.3	37.3	81	32.0	2	4	315	0.00	29.958 
07:30	37.3	37.3	37.3	80	31.7	3	7	248	0.00	29.973 
07:35	37.3	37.3	37.3	80	31.7	2	7	338	0.00	29.973 
07:40	37.3	37.3	37.3	80	31.7	2	9	292	0.00	29.973 
07:45	37.3	37.3	37.3	80	31.7	2	7	338	0.00	29.990 
07:50	37.2	37.2	37.2	80	31.6	2	4	315	0.00	29.990 
07:55	37.2	37.2	37.2	80	31.6	2	4	270	0.00	29.990 
08:00	37.2	37.2	37.2	80	31.6	1	3	315	0.00	30.003 
08:05	37.2	37.2	37.2	80	31.6	1	4	270	0.00	30.003 
08:10	37.2	37.2	37.2	80	31.6	2	6	315	0.00	30.003 
08:15	37.2	37.2	37.2	79	31.3	2	6	270	0.00	30.021 
08:20	37.0	37.0	37.0	80	31.4	1	4	338	0.00	30.021 
08:25	37.0	37.0	37.0	79	31.1	2	4	270	0.00	30.021 
08:30	37.0	37.0	37.0	80	31.4	2	4	292	0.00	30.035 
08:35	37.0	37.0	37.0	80	31.4	1	5	338	0.00	30.035 
08:40	37.0	37.0	37.0	79	31.1	2	5	248	0.00	30.035 
08:45	37.2	37.2	37.2	79	31.3	1	3	270	0.00	30.043 
08:50	37.2	37.2	37.2	79	31.3	1	4	248	0.00	30.043 
08:55	37.3	37.3	37.3	78	31.1	2	4	270	0.00	30.043 
09:00	37.3	37.3	37.3	78	31.1	2	5	315	0.00	30.052 
09:05	37.5	37.5	37.5	78	31.3	2	4	315	0.00	30.052 
09:10	37.5	37.5	37.5	78	31.3	2	5	270	0.00	30.052 
09:15	37.5	37.5	37.5	78	31.3	2	6	270	0.00	30.065 
09:20	37.5	37.5	37.5	78	31.3	2	4	338	0.00	30.065 
09:25	37.5	37.5	37.5	78	31.3	1	4	315	0.00	30.065 
09:30	37.5	37.5	37.5	79	31.6	1	4	338	0.00	30.071 
09:35	37.5	37.5	37.5	79	31.6	2	5	270	0.00	30.071 
09:40	37.5	37.5	37.5	79	31.6	1	5	270	0.00	30.071 
09:45	37.5	37.5	37.5	79	31.6	1	3	338	0.00	30.085 
09:50	37.6	37.6	37.6	79	31.7	1	3	270	0.00	30.085 
09:55	37.6	37.6	37.6	79	31.7	1	4	248	0.00	30.085 
10:00	37.6	37.6	37.6	79	31.7	1	3	315	0.00	30.100 
10:05	37.6	37.6	37.6	80	32.0	1	3	248	0.00	30.100 
10:10	37.6	37.6	37.6	80	32.0	2	5	248	0.00	30.100 
10:15	37.6	37.6	37.6	80	32.0	1	4	248	0.00	30.109 
10:20	37.6	37.6	37.6	81	32.3	1	3	292	0.00	30.109 
10:25	37.8	37.8	37.8	80	32.2	2	4	270	0.00	30.109 
10:30	37.8	37.8	37.8	81	32.5	1	5	248	0.00	30.119 
10:35	37.8	37.8	37.8	80	32.2	2	4	270	0.00	30.119 
10:40	37.8	37.8	37.8	79	31.9	2	3	315	0.00	30.119 
10:45	37.8	37.8	37.8	79	31.9	2	4	248	0.00	30.132 
10:50	37.8	37.8	37.8	78	31.6	2	4	270	0.00	30.132 
10:55	37.8	37.8	37.8	78	31.6	2	4	315	0.00	30.132 
11:00	37.9	37.9	37.9	78	31.7	2	5	315	0.00	30.147 
11:05	37.9	37.9	37.9	77	31.3	2	7	315	0.00	30.147 
11:10	37.8	37.8	37.8	77	31.2	1	3	315	0.00	30.147 
11:15	37.8	37.8	37.8	77	31.2	2	4	270	0.00	30.138 
11:20	37.8	37.8	37.8	77	31.2	2	5	248	0.00	30.138 
11:25	37.8	37.8	37.8	77	31.2	2	3	315	0.00	30.138 
11:30	37.8	37.8	37.8	77	31.2	1	3	270	0.00	30.143 
11:35	37.8	37.8	37.8	77	31.2	1	5	270	0.00	30.143 
11:40	37.9	37.9	37.9	77	31.3	1	5	270	0.00	30.143 
11:45	37.8	37.8	37.8	77	31.2	2	9	270	0.00	30.154 
11:50	37.8	37.8	37.8	77	31.2	2	4	248	0.00	30.154 
11:55	37.8	37.8	37.8	77	31.2	2	7	315	0.00	30.154 
12:00	37.6	37.6	37.6	78	31.4	3	7	270	0.00	30.158 
12:05	37.6	37.6	37.6	78	31.4	2	5	270	0.00	30.158 
12:10	37.5	37.5	37.5	78	31.3	2	6	270	0.00	30.158 
12:15	37.5	37.5	37.5	78	31.3	2	5	270	0.00	30.155 
12:20	37.5	37.5	37.5	77	31.0	2	4	270	0.00	30.155 
12:25	37.3	37.3	37.3	78	31.1	1	3	292	0.00	30.155 
12:30	37.3	37.3	37.3	78	31.1	1	6	270	0.00	30.158 
12:35	37.3	37.3	37.3	78	31.1	3	9	270	0.00	30.158 
12:40	37.3	37.3	37.3	79	31.4	2	6	270	0.00	30.158 
12:45	37.2	37.2	37.2	79	31.3	2	6	338	0.00	30.159 
12:50	37.2	37.2	37.2	79	31.3	2	4	270	0.00	30.159 
12:55	37.0	37.0	37.0	80	31.4	2	5	270	0.00	30.159 
13:00	37.0	37.0	37.0	79	31.1	2	5	292	0.00	30.168 
13:05	37.0	37.0	37.0	79	31.1	2	5	270	0.00	30.168 
13:10	37.0	37.0	37.0	79	31.1	1	3	315	0.00	30.168 
13:15	37.2	37.2	37.2	79	31.3	2	4	270	0.00	30.169 
13:20	37.3	37.3	37.3	79	31.4	2	4	248	0.00	30.169 
13:25	37.6	37.6	37.6	78	31.4	2	6	248	0.00	30.169 
13:30	37.6	37.6	37.6	77	31.1	1	4	248	0.00	30.170 
13:35	37.8	37.8	37.8	77	31.2	2	5	248	0.00	30.170 
13:40	37.6	37.6	37.6	77	31.1	2	4	270	0.00	30.170 
13:45	37.6	37.6	37.6	76	30.7	2	4	270	0.00	30.180 
13:50	37.6	37.6	37.6	76	30.7	3	10	270	0.00	30.180 
13:55	37.6	37.6	37.6	76	30.7	2	7	270	0.00	30.180 
14:00	37.5	37.5	37.5	76	30.6	1	3	270	0.00	30.191 
14:05	37.3	37.3	37.3	77	30.8	2	7	292	0.00	30.191 
14:10	37.3	37.3	37.3	77	30.8	2	6	248	0.00	30.191 
14:15	37.3	37.3	37.3	76	30.4	2	4	248	0.00	30.201 
14:20	37.5	37.5	37.5	76	30.6	1	4	292	0.00	30.201 
14:25	37.5	37.5	37.5	76	30.6	1	3	270	0.00	30.201 
14:30	37.5	37.5	37.5	76	30.6	2	5	270	0.00	30.203 
14:35	37.5	37.5	37.5	76	30.6	2	4	248	0.00	30.203 
14:40	37.6	37.6	37.6	75	30.4	2	4	248	0.00	30.203 
14:45	37.6	37.6	37.6	75	30.4	2	5	248	0.00	30.206 
14:50	37.6	37.6	37.6	76	30.7	2	5	270	0.00	30.206 
14:55	37.8	37.8	37.8	75	30.6	2	4	270	0.00	30.206 
15:00	37.8	37.8	37.8	75	30.6	2	5	248	0.00	30.217 
15:05	37.8	37.8	37.8	75	30.6	1	4	248	0.00	30.217 
15:10	37.8	37.8	37.8	75	30.6	2	5	270	0.00	30.217 
15:15	37.8	37.8	37.8	75	30.6	2	4	248	0.00	30.219 
15:20	37.8	37.8	37.8	75	30.6	2	5	270	0.00	30.219 
15:25	37.8	37.8	37.8	75	30.6	2	3	292	0.00	30.219 
15:30	37.8	37.8	37.8	75	30.6	2	4	315	0.00	30.223 
15:35	37.8	37.8	37.8	75	30.6	2	5	270	0.00	30.223 
15:40	37.6	37.6	37.6	75	30.4	2	4	270	0.00	30.223 
15:45	37.3	37.3	37.3	74	29.8	3	8	315	0.00	30.234 
15:50	37.3	37.3	37.3	74	29.8	2	5	270	0.00	30.234 
15:55	37.2	37.2	37.2	74	29.7	2	7	270	0.00	30.234 
16:00	37.2	37.2	37.2	73	29.4	2	5	270	0.00	30.239 
16:05	37.2	37.2	37.2	73	29.4	1	3	270	0.00	30.239 
16:10	37.2	37.2	37.2	74	29.7	1	3	248	0.00	30.239 
16:15	37.2	37.2	37.2	73	29.4	2	5	270	0.00	30.251 
16:20	37.2	37.2	37.2	73	29.4	2	4	270	0.00	30.251 
16:25	37.0	37.0	37.0	73	29.2	1	3	315	0.00	30.251 
16:30	37.0	37.0	37.0	73	29.2	2	4	270	0.00	30.254 
16:35	37.0	37.0	37.0	73	29.2	2	4	270	0.00	30.254 
16:40	37.0	37.0	37.0	73	29.2	2	5	270	0.00	30.254 
16:45	36.9	36.9	36.9	72	28.7	2	5	270	0.00	30.260 
16:50	36.8	36.8	36.8	72	28.6	3	7	270	0.00	30.260 
16:55	36.8	36.8	36.8	72	28.6	2	4	315	0.00	30.260 
17:00	36.6	36.6	36.6	72	28.4	2	6	315	0.00	30.269 
17:05	36.5	36.5	36.5	73	28.7	2	4	270	0.00	30.269 
17:10	36.3	36.3	36.3	73	28.5	2	4	292	0.00	30.269 
17:15	36.3	36.3	36.3	73	28.5	1	4	315	0.00	30.273 
17:20	36.2	36.2	36.2	73	28.4	1	5	315	0.00	30.273 
17:25	36.2	36.2	36.2	73	28.4	2	5	270	0.00	30.273 
17:30	36.0	36.0	36.0	72	27.9	2	9	315	0.00	30.282 
17:35	36.0	36.0	36.0	71	27.5	2	8	270	0.00	30.282 
17:40	35.9	35.9	35.9	72	27.8	2	5	315	0.00	30.282 
17:45	35.9	35.9	35.9	72	27.8	1	4	248	0.00	30.284 
17:50	35.9	35.9	35.9	72	27.8	2	5	248	0.00	30.284 
17:55	35.9	35.9	35.9	72	27.8	1	4	248	0.00	30.284 
18:00	35.9	35.9	35.9	72	27.8	2	4	270	0.00	30.287 
18:05	35.9	35.9	35.9	72	27.8	2	4	270	0.00	30.287 
18:10	35.9	35.9	35.9	72	27.8	1	3	270	0.00	30.287 
18:15	35.9	35.9	35.9	72	27.8	1	3	292	0.00	30.287 
18:20	35.9	35.9	35.9	72	27.8	2	4	270	0.00	30.287 
18:25	35.9	35.9	35.9	72	27.8	2	7	270	0.00	30.287 
18:30	35.9	35.9	35.9	72	27.8	1	4	270	0.00	30.299 
18:35	35.9	35.9	35.9	72	27.8	1	3	270	0.00	30.299 
18:40	35.9	35.9	35.9	72	27.8	1	3	248	0.00	30.299 
18:45	35.9	35.9	35.9	72	27.8	2	4	248	0.00	30.311 
18:50	35.9	35.9	35.9	72	27.8	2	5	248	0.00	30.311 
18:55	35.9	35.9	35.9	72	27.8	2	4	270	0.00	30.311 
19:00	35.9	35.9	35.9	73	28.1	1	4	270	0.00	30.321 
19:05	35.8	35.8	35.8	72	27.7	1	3	248	0.00	30.321 
19:10	35.8	35.8	35.8	72	27.7	1	4	248	0.00	30.321 
19:15	35.8	35.8	35.8	72	27.7	1	3	248	0.00	30.331 
19:20	35.8	35.8	35.8	72	27.7	1	2	270	0.00	30.331 
19:25	35.8	35.8	35.8	72	27.7	1	3	248	0.00	30.331 
19:30	35.8	35.8	35.8	73	28.0	1	4	248	0.00	30.334 
19:35	35.8	35.8	35.8	72	27.7	1	4	248	0.00	30.334 
19:40	35.8	35.8	35.8	72	27.7	2	4	248	0.00	30.334 
19:45	35.8	35.8	35.8	72	27.7	1	4	248	0.00	30.337 
19:50	35.8	35.8	35.8	72	27.7	1	4	248	0.00	30.337 
19:55	35.8	35.8	35.8	72	27.7	2	4	248	0.00	30.337 
20:00	35.8	35.8	35.8	72	27.7	2	4	248	0.00	30.340 
20:05	35.6	35.6	35.6	73	27.8	1	3	248	0.00	30.340 
20:10	35.6	35.6	35.6	73	27.8	1	2	248	0.00	30.340 
20:15	35.6	35.6	35.6	73	27.8	1	2	248	0.00	30.346 
20:20	35.6	35.6	35.6	72	27.5	1	4	248	0.00	30.346 
20:25	35.6	35.6	35.6	73	27.8	1	4	248	0.00	30.346 
20:30	35.6	35.6	35.6	73	27.8	1	3	248	0.00	30.352 
20:35	35.6	35.6	35.6	73	27.8	1	3	248	0.00	30.352 
20:40	35.6	35.6	35.6	72	27.5	1	3	248	0.00	30.352 
20:45	35.6	35.6	35.6	72	27.5	0	2	248	0.00	30.353 
20:50	35.6	35.6	35.6	73	27.8	0	1	248	0.00	30.353 
20:55	35.5	35.5	35.5	73	27.7	0	2	248	0.00	30.353 
21:00	35.5	35.5	35.5	73	27.7	0	2	248	0.00	30.352 
21:05	35.5	35.5	35.5	73	27.7	0	1	248	0.00	30.352 
21:10	35.5	35.5	35.5	73	27.7	1	2	248	0.00	30.352 
21:15	35.5	35.5	35.5	73	27.7	1	3	248	0.00	30.354 
21:20	35.6	35.6	35.6	73	27.8	1	3	248	0.00	30.354 
21:25	35.6	35.6	35.6	73	27.8	1	2	248	0.00	30.354 
21:30	35.6	35.6	35.6	73	27.8	1	2	248	0.00	30.359 
21:35	35.6	35.6	35.6	73	27.8	1	2	248	0.00	30.359 
21:40	35.6	35.6	35.6	73	27.8	0	3	248	0.00	30.359 
21:45	35.5	35.5	35.5	73	27.7	1	3	248	0.00	30.367 
21:50	35.5	35.5	35.5	73	27.7	0	2	248	0.00	30.367 
21:55	35.5	35.5	35.5	73	27.7	1	3	248	0.00	30.367 
22:00	35.5	35.5	35.5	72	27.4	1	2	248	0.00	30.368 
22:05	35.5	35.5	35.5	72	27.4	0	3	248	0.00	30.368 
22:10	35.5	35.5	35.5	73	27.7	1	3	248	0.00	30.368 
22:15	35.5	35.5	35.5	73	27.7	0	1	248	0.00	30.372 
22:20	35.5	35.5	35.5	72	27.4	0	2	248	0.00	30.372 
22:25	35.5	35.5	35.5	72	27.4	0	2	248	0.00	30.372 
22:30	35.5	35.5	35.5	72	27.4	0	1	248	0.00	30.377 
22:35	35.5	35.5	35.5	72	27.4	0	1	248	0.00	30.377 
22:40	35.5	35.5	35.5	72	27.4	0	2	248	0.00	30.377 
22:45	35.5	35.5	35.5	72	27.4	0	2	248	0.00	30.375 
22:50	35.5	35.5	35.5	72	27.4	0	1	248	0.00	30.375 
22:55	35.5	35.5	35.5	72	27.4	0	1	248	0.00	30.375 
23:00	35.5	35.5	35.5	71	27.0	0	2	248	0.00	30.380 
23:05	35.5	35.5	35.5	71	27.0	0	2	248	0.00	30.380 
23:10	35.5	35.5	35.5	71	27.0	0	2	248	0.00	30.380 
23:15	35.5	35.5	35.5	70	26.7	0	1	248	0.00	30.389 
23:20	35.5	35.5	35.5	70	26.7	1	3	248	0.00	30.389 
23:25	35.5	35.5	35.5	69	26.4	1	3	248	0.00	30.389 
23:30	35.6	35.6	35.6	69	26.4	1	3	248	0.00	30.397 
23:35	35.6	35.6	35.6	69	26.4	0	1	248	0.00	30.397 
23:40	35.6	35.6	35.6	69	26.4	0	2	248	0.00	30.397 
23:45	35.6	35.6	35.6	69	26.4	1	2	248	0.00	30.398 
23:50	35.6	35.6	35.6	69	26.4	0	2	248	0.00	30.398 
23:55	35.6	35.6	35.6	68	26.1	1	3	225	0.00	30.398 

CoCoRaHS
IN-AL-39
A2 Web Hosting
Creative Commons License
GoDaddy
Look for:

loaded 2017-10-20 19:38:28 • last modified 2010-11-18 10:43:29
Privacy PolicyDisclaimer
• wx.awcolley.com is powered by PmWiki v.2002016 •
• all content (unless otherwise noted) © 2017 A W Colley